createdAt,value
2023-01-17T00:00:33.071Z,97800.25
2023-01-17T00:03:05.083Z,97815.25
2023-01-17T00:05:59.483Z,97803.88
2023-01-17T00:08:50.234Z,97787.34
2023-01-17T00:11:22.095Z,97767.16
2023-01-17T00:13:54.033Z,97793.06
2023-01-17T00:16:26.041Z,97799.25
2023-01-17T00:19:16.791Z,97781.00
2023-01-17T00:22:07.090Z,97795.63
2023-01-17T00:24:57.750Z,97776.94
2023-01-17T00:27:30.954Z,97773.59
2023-01-17T00:30:02.882Z,97762.38
2023-01-17T00:32:34.688Z,97763.19
2023-01-17T00:35:06.874Z,97753.19
2023-01-17T00:37:38.839Z,97733.06
2023-01-17T00:40:11.200Z,97725.72
2023-01-17T00:42:43.027Z,97736.44
2023-01-17T00:45:33.660Z,97762.81
2023-01-17T00:48:24.363Z,97751.19
2023-01-17T00:51:15.097Z,97719.66
2023-01-17T00:54:05.725Z,97726.44
2023-01-17T00:56:56.354Z,97739.41
2023-01-17T00:59:47.033Z,97745.69
2023-01-17T01:02:37.738Z,97730.25
2023-01-17T01:05:29.675Z,97715.94
2023-01-17T01:08:20.872Z,97730.41
2023-01-17T01:11:11.615Z,97721.44
2023-01-17T01:14:02.423Z,97732.84
2023-01-17T01:16:52.958Z,97734.72
2023-01-17T01:19:43.524Z,97724.72
2023-01-17T01:22:34.401Z,97725.94
2023-01-17T01:25:24.826Z,97730.13
2023-01-17T01:28:26.353Z,97713.09
2023-01-17T01:31:24.160Z,97716.06
2023-01-17T01:33:56.068Z,97704.59
2023-01-17T01:36:28.039Z,97687.13
2023-01-17T01:39:00.382Z,97695.38
2023-01-17T01:41:32.326Z,97698.19
2023-01-17T01:44:04.564Z,97683.97
2023-01-17T01:46:41.666Z,97665.56
2023-01-17T01:49:25.001Z,97673.44
2023-01-17T01:52:01.765Z,97671.59
2023-01-17T01:54:44.347Z,97666.03
2023-01-17T01:57:20.729Z,97674.00
2023-01-17T01:59:58.398Z,97650.19
2023-01-17T02:02:31.777Z,97661.06
2023-01-17T02:05:04.899Z,97653.47
2023-01-17T02:08:01.963Z,97655.75
2023-01-17T02:10:39.881Z,97656.03
2023-01-17T02:13:14.794Z,97661.06
2023-01-17T02:16:13.521Z,97643.28
2023-01-17T02:19:13.380Z,97655.09
2023-01-17T02:22:14.225Z,97649.97
2023-01-17T02:25:15.692Z,97654.97
2023-01-17T02:27:53.503Z,97665.00
2023-01-17T02:30:56.912Z,97662.56
2023-01-17T02:33:47.993Z,97594.84
2023-01-17T02:37:07.233Z,97652.38
2023-01-17T02:39:47.283Z,97632.75
2023-01-17T02:42:22.315Z,97643.47
2023-01-17T02:44:54.163Z,97620.75
2023-01-17T02:47:31.655Z,97645.75
2023-01-17T02:50:16.159Z,97647.13
2023-01-17T02:53:09.896Z,97634.97
2023-01-17T02:56:23.590Z,97639.41
2023-01-17T02:59:33.546Z,97642.38
2023-01-17T03:02:35.717Z,97650.19
2023-01-17T03:05:13.956Z,97636.00
2023-01-17T03:07:48.554Z,97611.91
2023-01-17T03:10:21.223Z,97613.28
2023-01-17T03:12:57.993Z,97640.31
2023-01-17T03:15:29.872Z,97637.22
2023-01-17T03:18:08.122Z,97643.56
2023-01-17T03:20:40.243Z,97640.06
2023-01-17T03:23:12.218Z,97622.47
2023-01-17T03:25:44.186Z,97630.31
2023-01-17T03:28:16.300Z,97611.91
2023-01-17T03:30:48.403Z,97614.22
2023-01-17T03:33:20.650Z,97617.06
2023-01-17T03:35:53.173Z,97621.41
2023-01-17T03:38:26.572Z,97600.97
2023-01-17T03:40:58.699Z,97621.41
2023-01-17T03:43:31.315Z,97609.63
2023-01-17T03:46:17.610Z,97612.88
2023-01-17T03:48:50.447Z,97621.53
2023-01-17T03:51:22.435Z,97610.31
2023-01-17T03:53:54.664Z,97601.25
2023-01-17T03:56:26.828Z,97608.81
2023-01-17T03:58:58.886Z,97600.97
2023-01-17T04:01:31.195Z,97603.25
2023-01-17T04:04:03.243Z,97623.78
2023-01-17T04:06:35.236Z,97618.78
2023-01-17T04:09:07.316Z,97613.66
2023-01-17T04:11:40.797Z,97608.91
2023-01-17T04:14:12.783Z,97594.16
2023-01-17T04:16:45.083Z,97606.88
2023-01-17T04:19:17.742Z,97621.78
2023-01-17T04:21:49.910Z,97615.84
2023-01-17T04:24:21.845Z,97609.03
2023-01-17T04:26:53.834Z,97589.81
2023-01-17T04:29:25.876Z,97618.53
2023-01-17T04:31:57.834Z,97603.25
2023-01-17T04:34:29.785Z,97617.44
2023-01-17T04:37:01.880Z,97617.44
2023-01-17T04:39:33.813Z,97582.91
2023-01-17T04:42:05.931Z,97611.69
2023-01-17T04:44:37.927Z,97608.47
2023-01-17T04:47:09.833Z,97621.44
2023-01-17T04:49:44.070Z,97633.22
2023-01-17T04:52:18.953Z,97637.97
2023-01-17T04:54:51.052Z,97615.34
2023-01-17T04:57:23.120Z,97641.75
2023-01-17T04:59:55.064Z,97642.13
2023-01-17T05:02:27.211Z,97634.13
2023-01-17T05:04:59.178Z,97641.81
2023-01-17T05:07:31.190Z,97628.69
2023-01-17T05:10:04.832Z,97653.59
2023-01-17T05:12:36.789Z,97649.53
2023-01-17T05:15:09.035Z,97633.28
2023-01-17T05:17:41.026Z,97640.84
2023-01-17T05:20:12.973Z,97650.47
2023-01-17T05:22:45.236Z,97652.75
2023-01-17T05:25:17.243Z,97654.38
2023-01-17T05:27:49.634Z,97653.03
2023-01-17T05:30:23.109Z,97641.13
2023-01-17T05:32:56.562Z,97654.66
2023-01-17T05:35:33.077Z,97665.22
2023-01-17T05:38:05.306Z,97658.97
2023-01-17T05:40:40.404Z,97654.88
2023-01-17T05:43:12.390Z,97657.53
2023-01-17T05:45:44.366Z,97645.47
2023-01-17T05:48:16.488Z,97630.16
2023-01-17T05:50:48.477Z,97632.00
2023-01-17T05:53:20.730Z,97664.56
2023-01-17T05:55:53.400Z,97670.28
2023-01-17T05:58:25.371Z,97658.44
2023-01-17T06:00:57.526Z,97658.09
2023-01-17T06:03:29.891Z,97626.16
2023-01-17T06:06:01.767Z,97656.94
2023-01-17T06:08:33.772Z,97654.44
2023-01-17T06:11:05.787Z,97662.44
2023-01-17T06:13:37.703Z,97661.06
2023-01-17T06:16:09.800Z,97684.13
2023-01-17T06:18:41.656Z,97680.28
2023-01-17T06:21:13.587Z,97687.38
2023-01-17T06:23:45.447Z,97668.75
2023-01-17T06:26:17.402Z,97682.84
2023-01-17T06:28:49.326Z,97679.94
2023-01-17T06:31:21.409Z,97631.75
2023-01-17T06:33:53.770Z,97695.25
2023-01-17T06:36:25.720Z,97681.53
2023-01-17T06:38:57.603Z,97675.59
2023-01-17T06:41:29.483Z,97707.59
2023-01-17T06:44:01.478Z,97688.06
2023-01-17T06:46:33.492Z,97686.34
2023-01-17T06:49:05.991Z,97714.59
2023-01-17T06:51:37.908Z,97694.25
2023-01-17T06:54:10.431Z,97698.72
2023-01-17T06:56:42.446Z,97716.50
2023-01-17T06:59:14.387Z,97720.19
2023-01-17T07:01:46.434Z,97714.16
2023-01-17T07:04:18.421Z,97673.81
2023-01-17T07:06:50.765Z,97706.47
2023-01-17T07:09:22.788Z,97717.41
2023-01-17T07:11:59.994Z,97680.44
2023-01-17T07:14:32.090Z,97691.81
2023-01-17T07:17:04.558Z,97707.84
2023-01-17T07:19:36.549Z,97687.63
2023-01-17T07:22:11.045Z,97714.25
2023-01-17T07:24:43.003Z,97657.97
2023-01-17T07:27:14.913Z,97698.91
2023-01-17T07:29:46.754Z,97678.22
2023-01-17T07:32:18.770Z,97716.22
2023-01-17T07:34:51.240Z,97682.50
2023-01-17T07:37:23.618Z,97711.75
2023-01-17T07:39:55.615Z,97685.97
2023-01-17T07:42:27.612Z,97703.88
2023-01-17T07:45:00.991Z,97725.47
2023-01-17T07:47:34.320Z,97716.09
2023-01-17T07:50:07.757Z,97731.31
2023-01-17T07:52:39.754Z,97727.94
2023-01-17T07:55:11.704Z,97722.38
2023-01-17T07:57:43.642Z,97722.38
2023-01-17T08:00:16.044Z,97729.19
2023-01-17T08:02:47.950Z,97722.09
2023-01-17T08:05:19.860Z,97731.53
2023-01-17T08:07:52.403Z,97724.03
2023-01-17T08:10:24.517Z,97731.38
2023-01-17T08:12:56.487Z,97743.56
2023-01-17T08:15:28.576Z,97741.81
2023-01-17T08:18:00.754Z,97753.88
2023-01-17T08:20:32.752Z,97722.47
2023-01-17T08:23:04.734Z,97742.81
2023-01-17T08:25:36.884Z,97736.41
2023-01-17T08:28:08.863Z,97722.00
2023-01-17T08:30:41.349Z,97728.38
2023-01-17T08:33:13.324Z,97727.88
2023-01-17T08:35:53.175Z,97722.97
2023-01-17T08:38:25.899Z,97708.13
2023-01-17T08:41:01.203Z,97719.44
2023-01-17T08:43:33.535Z,97703.53
2023-01-17T08:46:06.581Z,97702.84
2023-01-17T08:48:38.576Z,97707.25
2023-01-17T08:51:11.309Z,97713.31
2023-01-17T08:53:43.358Z,97697.34
2023-01-17T08:56:15.292Z,97695.50
2023-01-17T08:58:47.298Z,97715.47
2023-01-17T09:01:19.446Z,97696.66
2023-01-17T09:03:54.247Z,97711.41
2023-01-17T09:06:26.236Z,97696.81
2023-01-17T09:09:00.956Z,97712.81
2023-01-17T09:11:33.144Z,97728.56
2023-01-17T09:14:05.062Z,97717.31
2023-01-17T09:16:37.007Z,97728.56
2023-01-17T09:19:09.746Z,97749.44
2023-01-17T09:21:41.703Z,97745.13
2023-01-17T09:24:13.895Z,97725.34
2023-01-17T09:26:46.069Z,97743.34
2023-01-17T09:29:19.074Z,97752.81
2023-01-17T09:31:51.239Z,97723.00
2023-01-17T09:34:24.689Z,97765.81
2023-01-17T09:36:57.328Z,97756.75
2023-01-17T09:39:29.322Z,97732.66
2023-01-17T09:42:34.717Z,97766.41
2023-01-17T09:45:16.727Z,97757.03
2023-01-17T09:47:54.089Z,97768.47
2023-01-17T09:50:44.244Z,97765.91
2023-01-17T09:53:21.181Z,97746.38
2023-01-17T09:55:55.736Z,97766.28
2023-01-17T09:58:46.755Z,97769.81
2023-01-17T10:01:56.965Z,97766.19
2023-01-17T10:04:49.396Z,97752.81
2023-01-17T10:07:43.500Z,97756.31
2023-01-17T10:10:30.528Z,97761.75
2023-01-17T10:13:38.970Z,97762.03
2023-01-17T10:16:19.959Z,97759.03
2023-01-17T10:18:54.896Z,97762.81
2023-01-17T10:21:38.701Z,97768.00
2023-01-17T10:24:38.278Z,97768.53
2023-01-17T10:27:22.272Z,97773.69
2023-01-17T10:29:54.673Z,97779.25
2023-01-17T10:32:33.308Z,97773.78
2023-01-17T10:35:17.729Z,97769.06
2023-01-17T10:37:52.618Z,97743.34
2023-01-17T10:40:46.773Z,97776.91
2023-01-17T10:44:00.043Z,97778.56
2023-01-17T10:46:41.590Z,97782.34
2023-01-17T10:49:19.235Z,97797.00
2023-01-17T10:52:12.440Z,97794.28
2023-01-17T10:54:47.131Z,97794.81
2023-01-17T10:57:25.037Z,97776.66
2023-01-17T11:00:01.475Z,97795.78
2023-01-17T11:02:40.241Z,97795.38
2023-01-17T11:05:21.878Z,97787.38
2023-01-17T11:08:05.177Z,97814.31
2023-01-17T11:10:54.414Z,97818.94
2023-01-17T11:13:37.011Z,97801.84
2023-01-17T11:16:22.081Z,97810.13
2023-01-17T11:19:17.658Z,97813.25
2023-01-17T11:21:56.258Z,97801.84
2023-01-17T11:24:58.570Z,97814.88
2023-01-17T11:27:35.658Z,97820.13
2023-01-17T11:30:17.245Z,97792.09
2023-01-17T11:32:59.222Z,97810.53
2023-01-17T11:35:33.466Z,97798.06
2023-01-17T11:38:22.247Z,97812.56
2023-01-17T11:41:14.404Z,97795.50
2023-01-17T11:43:57.971Z,97817.03
2023-01-17T11:46:30.322Z,97802.81
2023-01-17T11:49:02.305Z,97805.78
2023-01-17T11:51:41.647Z,97810.00
2023-01-17T11:54:39.294Z,97801.47
2023-01-17T11:57:25.172Z,97810.16
2023-01-17T12:00:22.660Z,97795.63
2023-01-17T12:03:25.428Z,97820.28
2023-01-17T12:06:19.762Z,97822.84
2023-01-17T12:09:32.366Z,97803.78
2023-01-17T12:12:42.801Z,97816.53
2023-01-17T12:15:36.882Z,97814.34
2023-01-17T12:18:36.438Z,97814.75
2023-01-17T12:21:31.026Z,97805.41
2023-01-17T12:24:41.858Z,97804.19
2023-01-17T12:27:28.726Z,97795.09
2023-01-17T12:30:22.331Z,97803.50
2023-01-17T12:33:02.938Z,97801.59
2023-01-17T12:35:45.347Z,97788.34
2023-01-17T12:38:32.624Z,97790.78
2023-01-17T12:41:32.145Z,97799.19
2023-01-17T12:44:04.126Z,97784.13
2023-01-17T12:46:49.727Z,97797.56
2023-01-17T12:49:58.350Z,97781.56
2023-01-17T12:52:45.381Z,97792.25
2023-01-17T12:55:26.267Z,97803.78
2023-01-17T12:58:01.993Z,97800.41
2023-01-17T13:00:38.110Z,97801.06
2023-01-17T13:03:40.171Z,97809.59
2023-01-17T13:06:22.310Z,97810.41
2023-01-17T13:08:58.552Z,97788.31
2023-01-17T13:11:41.483Z,97812.97
2023-01-17T13:14:13.432Z,97805.34
2023-01-17T13:16:54.127Z,97797.22
2023-01-17T13:19:47.463Z,97816.06
2023-01-17T13:22:23.335Z,97797.34
2023-01-17T13:25:36.535Z,97795.88
2023-01-17T13:28:29.798Z,97815.25
2023-01-17T13:31:27.710Z,97817.03
2023-01-17T13:34:08.915Z,97811.88
2023-01-17T13:37:05.162Z,97812.03
2023-01-17T13:39:52.440Z,97808.78
2023-01-17T13:42:39.303Z,97808.94
2023-01-17T13:45:20.567Z,97792.53
2023-01-17T13:47:54.209Z,97765.88
2023-01-17T13:50:41.280Z,97807.41
2023-01-17T13:53:39.463Z,97801.06
2023-01-17T13:56:11.365Z,97803.22
2023-01-17T13:58:50.627Z,97812.72
2023-01-17T14:01:43.383Z,97805.78
2023-01-17T14:04:15.490Z,97801.16
2023-01-17T14:06:56.870Z,97807.53
2023-01-17T14:09:42.236Z,97805.75
2023-01-17T14:12:15.406Z,97811.44
2023-01-17T14:14:50.831Z,97818.59
2023-01-17T14:17:23.346Z,97817.91
2023-01-17T14:20:19.332Z,97841.41
2023-01-17T14:23:29.915Z,97845.19
2023-01-17T14:26:21.678Z,97838.94
2023-01-17T14:28:54.649Z,97837.00
2023-01-17T14:31:28.274Z,97842.66
2023-01-17T14:34:14.317Z,97843.19
2023-01-17T14:36:46.342Z,97853.97
2023-01-17T14:39:23.055Z,97868.56
2023-01-17T14:41:55.120Z,97859.19
2023-01-17T14:44:27.097Z,97849.25
2023-01-17T14:46:59.268Z,97860.38
2023-01-17T14:49:31.273Z,97874.47
2023-01-17T14:52:06.544Z,97844.50
2023-01-17T14:54:47.774Z,97883.88
2023-01-17T14:57:29.458Z,97882.75
2023-01-17T15:00:15.667Z,97893.84
2023-01-17T15:02:49.302Z,97879.72
2023-01-17T15:05:24.835Z,97910.56
2023-01-17T15:07:58.516Z,97892.19
2023-01-17T15:10:33.190Z,97912.13
2023-01-17T15:13:10.842Z,97919.16
2023-01-17T15:15:43.057Z,97905.75
2023-01-17T15:18:14.970Z,97929.44
2023-01-17T15:21:09.360Z,97930.47
2023-01-17T15:23:46.523Z,97931.19
2023-01-17T15:26:23.264Z,97933.16
2023-01-17T15:29:05.516Z,97939.00
2023-01-17T15:31:50.257Z,97959.84
2023-01-17T15:34:37.429Z,97957.06
2023-01-17T15:37:30.801Z,97926.28
2023-01-17T15:40:04.965Z,97964.63
2023-01-17T15:42:42.653Z,97952.03
2023-01-17T15:45:20.160Z,97974.72
2023-01-17T15:47:52.140Z,97960.41
2023-01-17T15:50:30.857Z,97986.25
2023-01-17T15:53:06.052Z,97992.41
2023-01-17T15:55:39.728Z,97993.09
2023-01-17T15:58:27.508Z,98016.84
2023-01-17T16:00:59.638Z,97987.78
2023-01-17T16:03:31.634Z,98014.94
2023-01-17T16:06:04.847Z,98026.84
2023-01-17T16:08:40.274Z,97981.94
2023-01-17T16:11:13.377Z,98011.19
2023-01-17T16:13:47.640Z,98032.28
2023-01-17T16:16:23.637Z,98022.81
2023-01-17T16:19:01.014Z,98039.03
2023-01-17T16:21:33.116Z,98027.94
2023-01-17T16:24:06.313Z,98042.88
2023-01-17T16:26:38.286Z,98049.84
2023-01-17T16:29:10.511Z,98035.56
2023-01-17T16:31:42.440Z,98022.28
2023-01-17T16:34:14.406Z,98042.34
2023-01-17T16:36:46.380Z,98042.38
2023-01-17T16:39:18.319Z,98029.47
2023-01-17T16:41:50.180Z,98015.41
2023-01-17T16:44:22.156Z,98055.44
2023-01-17T16:46:54.132Z,98036.34
2023-01-17T16:49:26.216Z,98055.69
2023-01-17T16:51:59.238Z,98050.88
2023-01-17T16:54:32.175Z,98041.78
2023-01-17T16:57:04.113Z,98048.03
2023-01-17T16:59:49.839Z,98029.88
2023-01-17T17:02:23.356Z,98041.00
2023-01-17T17:04:55.385Z,98000.38
2023-01-17T17:07:27.543Z,98033.78
2023-01-17T17:09:59.532Z,98036.00
2023-01-17T17:12:32.524Z,98022.44
2023-01-17T17:15:04.904Z,98027.94
2023-01-17T17:17:38.354Z,98034.56
2023-01-17T17:20:13.148Z,98038.94
2023-01-17T17:22:50.819Z,98040.56
2023-01-17T17:25:22.883Z,98009.31
2023-01-17T17:27:55.065Z,98004.41
2023-01-17T17:30:27.631Z,98014.88
2023-01-17T17:32:59.759Z,98029.34
2023-01-17T17:35:34.962Z,98027.41
2023-01-17T17:38:08.192Z,98037.41
2023-01-17T17:40:40.052Z,98042.63
2023-01-17T17:43:12.065Z,98030.59
2023-01-17T17:45:43.988Z,98030.75
2023-01-17T17:48:15.991Z,98010.34
2023-01-17T17:50:59.402Z,98020.25
2023-01-17T17:53:32.079Z,98039.16
2023-01-17T17:56:06.042Z,98009.53
2023-01-17T17:58:38.008Z,98027.75
2023-01-17T18:01:09.920Z,98000.00
2023-01-17T18:03:41.875Z,98033.47
2023-01-17T18:06:14.070Z,97990.88
2023-01-17T18:08:46.354Z,98018.78
2023-01-17T18:11:22.074Z,98032.28
2023-01-17T18:13:55.678Z,98026.94
2023-01-17T18:16:35.995Z,98006.91
2023-01-17T18:19:12.167Z,98011.09
2023-01-17T18:21:44.615Z,98024.38
2023-01-17T18:24:18.827Z,98013.66
2023-01-17T18:26:53.542Z,98027.84
2023-01-17T18:29:27.459Z,98026.94
2023-01-17T18:31:59.500Z,98008.47
2023-01-17T18:34:31.543Z,98027.34
2023-01-17T18:37:03.494Z,98046.78
2023-01-17T18:39:35.451Z,98013.56
2023-01-17T18:42:07.988Z,98022.88
2023-01-17T18:44:40.025Z,98013.69
2023-01-17T18:47:13.338Z,98028.63
2023-01-17T18:49:45.258Z,98005.03
2023-01-17T18:52:19.770Z,97994.47
2023-01-17T18:54:51.673Z,98009.50
2023-01-17T18:57:24.456Z,98035.16
2023-01-17T18:59:57.484Z,98041.06
2023-01-17T19:02:29.473Z,98010.66
2023-01-17T19:05:05.872Z,97987.97
2023-01-17T19:07:37.802Z,98067.28
2023-01-17T19:10:10.346Z,98062.06
2023-01-17T19:12:42.326Z,98062.28
2023-01-17T19:15:14.403Z,98025.00
2023-01-17T19:17:46.328Z,98080.09
2023-01-17T19:20:19.296Z,98085.50
2023-01-17T19:22:51.565Z,98099.00
2023-01-17T19:25:25.924Z,98106.03
2023-01-17T19:27:58.628Z,98127.63
2023-01-17T19:30:34.625Z,98104.09
2023-01-17T19:33:06.817Z,98128.66
2023-01-17T19:35:38.715Z,98094.19
2023-01-17T19:38:10.593Z,98070.13
2023-01-17T19:40:42.552Z,98116.66
2023-01-17T19:43:14.483Z,98135.81
2023-01-17T19:45:55.962Z,98150.94
2023-01-17T19:48:28.513Z,98151.66
2023-01-17T19:51:18.571Z,98162.63
2023-01-17T19:53:50.827Z,98138.56
2023-01-17T19:56:25.311Z,98157.41
2023-01-17T19:59:01.514Z,98137.72
2023-01-17T20:01:34.722Z,98162.16
2023-01-17T20:04:06.776Z,98145.50
2023-01-17T20:06:38.764Z,98163.13
2023-01-17T20:09:11.084Z,98166.47
2023-01-17T20:11:43.558Z,98164.84
2023-01-17T20:14:16.802Z,98175.41
2023-01-17T20:16:49.945Z,98149.91
2023-01-17T20:19:21.948Z,98137.34
2023-01-17T20:21:54.400Z,98149.72
2023-01-17T20:24:26.499Z,98124.94
2023-01-17T20:26:58.382Z,98159.81
2023-01-17T20:29:30.453Z,98143.34
2023-01-17T20:32:02.495Z,98146.25
2023-01-17T20:34:34.443Z,98120.56
2023-01-17T20:37:08.991Z,98166.09
2023-01-17T20:39:41.428Z,98171.81
2023-01-17T20:42:13.400Z,98163.72
2023-01-17T20:44:45.831Z,98167.91
2023-01-17T20:47:18.502Z,98152.44
2023-01-17T20:49:50.427Z,98162.28
2023-01-17T20:52:22.416Z,98148.97
2023-01-17T20:54:54.439Z,98166.69
2023-01-17T20:57:26.361Z,98140.91
2023-01-17T20:59:58.407Z,98155.34
2023-01-17T21:02:30.479Z,98154.22
2023-01-17T21:05:04.008Z,98172.34
2023-01-17T21:07:35.981Z,98139.78
2023-01-17T21:10:08.363Z,98143.97
2023-01-17T21:12:40.860Z,98140.00
2023-01-17T21:15:17.716Z,98170.06
2023-01-17T21:17:49.691Z,98183.75
2023-01-17T21:20:21.617Z,98140.91
2023-01-17T21:22:53.558Z,98180.59
2023-01-17T21:25:25.489Z,98176.00
2023-01-17T21:27:57.740Z,98165.97
2023-01-17T21:30:29.950Z,98177.53
2023-01-17T21:33:01.979Z,98181.63
2023-01-17T21:35:33.966Z,98167.91
2023-01-17T21:38:06.213Z,98182.63
2023-01-17T21:40:38.416Z,98173.13
2023-01-17T21:43:10.987Z,98182.03
2023-01-17T21:45:43.128Z,98127.41
2023-01-17T21:48:15.144Z,98150.22
2023-01-17T21:50:47.663Z,98152.38
2023-01-17T21:53:19.683Z,98141.66
2023-01-17T21:56:10.101Z,98154.44
2023-01-17T21:58:45.115Z,98146.72
2023-01-17T22:01:18.891Z,98160.34
2023-01-17T22:04:10.405Z,98141.59
2023-01-17T22:06:42.325Z,98096.19
2023-01-17T22:09:15.390Z,98151.34
2023-01-17T22:11:47.427Z,98159.81
2023-01-17T22:14:19.827Z,98140.75
2023-01-17T22:16:52.031Z,98142.25
2023-01-17T22:19:23.968Z,98153.75
2023-01-17T22:21:55.923Z,98155.16
2023-01-17T22:24:27.880Z,98141.03
2023-01-17T22:26:59.873Z,98175.25
2023-01-17T22:29:34.280Z,98103.88
2023-01-17T22:32:06.274Z,98124.81
2023-01-17T22:34:38.205Z,98164.91
2023-01-17T22:37:10.371Z,98113.03
2023-01-17T22:39:42.357Z,98174.34
2023-01-17T22:42:15.549Z,98160.34
2023-01-17T22:44:48.176Z,98112.38
2023-01-17T22:47:20.131Z,98168.03
2023-01-17T22:49:52.106Z,98146.72
2023-01-17T22:52:24.185Z,98162.69
2023-01-17T22:54:56.673Z,98159.31
2023-01-17T22:57:28.682Z,98173.13
2023-01-17T23:00:00.604Z,98173.88
2023-01-17T23:02:32.551Z,98149.72
2023-01-17T23:05:04.704Z,98147.06
2023-01-17T23:07:46.755Z,98160.88
2023-01-17T23:10:38.730Z,98155.84
2023-01-17T23:13:10.767Z,98157.50
2023-01-17T23:16:01.701Z,98161.09
2023-01-17T23:18:52.361Z,98140.31
2023-01-17T23:21:44.262Z,98158.94
2023-01-17T23:24:16.254Z,98141.53
2023-01-17T23:27:08.116Z,98155.97
2023-01-17T23:29:40.102Z,98156.25
2023-01-17T23:32:12.251Z,98157.06
2023-01-17T23:34:44.214Z,98120.88
2023-01-17T23:37:16.221Z,98152.28
2023-01-17T23:39:48.193Z,98134.69
2023-01-17T23:42:38.772Z,98140.00
2023-01-17T23:45:10.843Z,98114.34
2023-01-17T23:47:45.245Z,98120.88
2023-01-17T23:50:17.233Z,98078.13
2023-01-17T23:52:49.100Z,98140.53
2023-01-17T23:55:20.959Z,98119.44
2023-01-17T23:57:53.061Z,98106.94
